sensor_id;sensor_type;location;lat;lon;timestamp;temperature;humidity
65048;DHT22;52089;51.362;-2.384;2022-12-07T00:03:42;1.70;99.90
65048;DHT22;52089;51.362;-2.384;2022-12-07T00:07:24;1.60;99.90
65048;DHT22;52089;51.362;-2.384;2022-12-07T00:11:17;1.60;99.90
65048;DHT22;52089;51.362;-2.384;2022-12-07T00:14:59;1.60;99.90
65048;DHT22;52089;51.362;-2.384;2022-12-07T00:18:41;1.60;99.90
65048;DHT22;52089;51.362;-2.384;2022-12-07T00:22:23;1.60;99.90
65048;DHT22;52089;51.362;-2.384;2022-12-07T00:26:11;1.60;99.90
65048;DHT22;52089;51.362;-2.384;2022-12-07T00:29:53;1.50;99.90
65048;DHT22;52089;51.362;-2.384;2022-12-07T00:33:35;1.60;99.90
65048;DHT22;52089;51.362;-2.384;2022-12-07T00:37:17;1.50;99.90
65048;DHT22;52089;51.362;-2.384;2022-12-07T00:41:04;1.60;99.90
65048;DHT22;52089;51.362;-2.384;2022-12-07T00:44:46;1.60;99.90
65048;DHT22;52089;51.362;-2.384;2022-12-07T00:48:28;1.60;99.90
65048;DHT22;52089;51.362;-2.384;2022-12-07T00:52:10;1.50;99.90
65048;DHT22;52089;51.362;-2.384;2022-12-07T00:55:52;1.50;99.90
65048;DHT22;52089;51.362;-2.384;2022-12-07T00:59:34;1.50;99.90
65048;DHT22;52089;51.362;-2.384;2022-12-07T01:03:16;1.40;99.90
65048;DHT22;52089;51.362;-2.384;2022-12-07T01:06:58;1.30;99.90
65048;DHT22;52089;51.362;-2.384;2022-12-07T01:10:40;1.40;99.90
65048;DHT22;52089;51.362;-2.384;2022-12-07T01:14:22;1.20;99.90
65048;DHT22;52089;51.362;-2.384;2022-12-07T01:18:04;1.20;99.90
65048;DHT22;52089;51.362;-2.384;2022-12-07T01:21:46;1.10;99.90
65048;DHT22;52089;51.362;-2.384;2022-12-07T01:25:27;1.10;99.90
65048;DHT22;52089;51.362;-2.384;2022-12-07T01:29:09;1.00;99.90
65048;DHT22;52089;51.362;-2.384;2022-12-07T01:32:51;1.00;99.90
65048;DHT22;52089;51.362;-2.384;2022-12-07T01:36:35;1.00;99.90
65048;DHT22;52089;51.362;-2.384;2022-12-07T01:40:17;1.00;99.90
65048;DHT22;52089;51.362;-2.384;2022-12-07T01:44:19;1.10;99.90
65048;DHT22;52089;51.362;-2.384;2022-12-07T01:48:01;1.00;99.90
65048;DHT22;52089;51.362;-2.384;2022-12-07T01:51:44;1.00;99.90
65048;DHT22;52089;51.362;-2.384;2022-12-07T01:55:27;1.00;99.90
65048;DHT22;52089;51.362;-2.384;2022-12-07T01:59:09;1.10;99.90
65048;DHT22;52089;51.362;-2.384;2022-12-07T02:02:53;1.00;99.90
65048;DHT22;52089;51.362;-2.384;2022-12-07T02:06:37;1.10;99.90
65048;DHT22;52089;51.362;-2.384;2022-12-07T02:10:27;1.00;99.90
65048;DHT22;52089;51.362;-2.384;2022-12-07T02:14:09;1.10;99.90
65048;DHT22;52089;51.362;-2.384;2022-12-07T02:25:58;1.00;99.90
65048;DHT22;52089;51.362;-2.384;2022-12-07T02:29:54;0.90;99.90
65048;DHT22;52089;51.362;-2.384;2022-12-07T02:33:54;1.00;99.90
65048;DHT22;52089;51.362;-2.384;2022-12-07T02:41:44;0.90;99.90
65048;DHT22;52089;51.362;-2.384;2022-12-07T02:45:29;0.90;99.90
65048;DHT22;52089;51.362;-2.384;2022-12-07T02:49:12;0.90;99.90
65048;DHT22;52089;51.362;-2.384;2022-12-07T02:52:54;0.90;99.90
65048;DHT22;52089;51.362;-2.384;2022-12-07T02:56:46;0.90;99.90
65048;DHT22;52089;51.362;-2.384;2022-12-07T03:00:31;0.90;99.90
65048;DHT22;52089;51.362;-2.384;2022-12-07T03:12:25;0.60;99.90
65048;DHT22;52089;51.362;-2.384;2022-12-07T03:16:41;0.60;99.90
65048;DHT22;52089;51.362;-2.384;2022-12-07T03:20:25;0.60;99.90
65048;DHT22;52089;51.362;-2.384;2022-12-07T03:24:12;0.50;99.90
65048;DHT22;52089;51.362;-2.384;2022-12-07T03:27:59;0.50;99.90
65048;DHT22;52089;51.362;-2.384;2022-12-07T03:31:48;0.50;99.90
65048;DHT22;52089;51.362;-2.384;2022-12-07T03:35:58;0.50;99.90
65048;DHT22;52089;51.362;-2.384;2022-12-07T03:43:58;0.50;99.90
65048;DHT22;52089;51.362;-2.384;2022-12-07T03:48:22;0.50;99.90
65048;DHT22;52089;51.362;-2.384;2022-12-07T03:52:26;0.60;99.90
65048;DHT22;52089;51.362;-2.384;2022-12-07T03:56:10;0.50;99.90
65048;DHT22;52089;51.362;-2.384;2022-12-07T03:59:55;0.40;99.90
65048;DHT22;52089;51.362;-2.384;2022-12-07T04:03:37;0.40;99.90
65048;DHT22;52089;51.362;-2.384;2022-12-07T04:07:19;0.40;99.90
65048;DHT22;52089;51.362;-2.384;2022-12-07T04:11:01;0.30;99.90
65048;DHT22;52089;51.362;-2.384;2022-12-07T04:14:43;0.40;99.90
65048;DHT22;52089;51.362;-2.384;2022-12-07T04:18:25;0.40;99.90
65048;DHT22;52089;51.362;-2.384;2022-12-07T04:22:07;0.40;99.90
65048;DHT22;52089;51.362;-2.384;2022-12-07T04:25:48;0.40;99.90
65048;DHT22;52089;51.362;-2.384;2022-12-07T04:29:30;0.40;99.90
65048;DHT22;52089;51.362;-2.384;2022-12-07T04:33:12;0.30;99.90
65048;DHT22;52089;51.362;-2.384;2022-12-07T04:36:54;0.30;99.90
65048;DHT22;52089;51.362;-2.384;2022-12-07T04:40:36;0.20;99.90
65048;DHT22;52089;51.362;-2.384;2022-12-07T04:44:18;0.20;99.90
65048;DHT22;52089;51.362;-2.384;2022-12-07T04:48:00;0.00;99.90
65048;DHT22;52089;51.362;-2.384;2022-12-07T04:51:42;0.00;99.90
65048;DHT22;52089;51.362;-2.384;2022-12-07T04:55:25;-0.10;99.90
65048;DHT22;52089;51.362;-2.384;2022-12-07T04:59:07;-0.10;99.90
65048;DHT22;52089;51.362;-2.384;2022-12-07T05:02:49;-0.10;99.90
65048;DHT22;52089;51.362;-2.384;2022-12-07T05:06:31;-0.10;99.90
65048;DHT22;52089;51.362;-2.384;2022-12-07T05:10:12;-0.10;99.90
65048;DHT22;52089;51.362;-2.384;2022-12-07T05:13:54;0.00;99.90
65048;DHT22;52089;51.362;-2.384;2022-12-07T05:17:36;0.00;99.90
65048;DHT22;52089;51.362;-2.384;2022-12-07T05:21:18;0.10;99.90
65048;DHT22;52089;51.362;-2.384;2022-12-07T05:25:00;0.00;99.90
65048;DHT22;52089;51.362;-2.384;2022-12-07T05:28:42;0.10;99.90
65048;DHT22;52089;51.362;-2.384;2022-12-07T05:32:23;0.00;99.90
65048;DHT22;52089;51.362;-2.384;2022-12-07T05:36:05;0.00;99.90
65048;DHT22;52089;51.362;-2.384;2022-12-07T05:39:48;0.00;99.90
65048;DHT22;52089;51.362;-2.384;2022-12-07T05:43:31;0.00;99.90
65048;DHT22;52089;51.362;-2.384;2022-12-07T05:47:14;0.00;99.90
65048;DHT22;52089;51.362;-2.384;2022-12-07T05:50:56;-0.10;99.90
65048;DHT22;52089;51.362;-2.384;2022-12-07T05:54:38;-0.10;99.90
65048;DHT22;52089;51.362;-2.384;2022-12-07T05:58:19;-0.10;99.90
65048;DHT22;52089;51.362;-2.384;2022-12-07T06:02:20;-0.10;99.90
65048;DHT22;52089;51.362;-2.384;2022-12-07T06:06:02;-0.10;99.90
65048;DHT22;52089;51.362;-2.384;2022-12-07T06:09:44;0.00;99.90
65048;DHT22;52089;51.362;-2.384;2022-12-07T06:13:25;0.00;99.90
65048;DHT22;52089;51.362;-2.384;2022-12-07T06:17:07;-0.10;99.90
65048;DHT22;52089;51.362;-2.384;2022-12-07T06:20:49;-0.10;99.90
65048;DHT22;52089;51.362;-2.384;2022-12-07T06:24:32;-0.10;99.90
65048;DHT22;52089;51.362;-2.384;2022-12-07T06:28:14;-0.10;99.90
65048;DHT22;52089;51.362;-2.384;2022-12-07T06:31:56;-0.10;99.90
65048;DHT22;52089;51.362;-2.384;2022-12-07T06:35:38;-0.10;99.90
65048;DHT22;52089;51.362;-2.384;2022-12-07T06:39:23;-0.10;99.90
65048;DHT22;52089;51.362;-2.384;2022-12-07T06:43:05;-0.10;99.90
65048;DHT22;52089;51.362;-2.384;2022-12-07T06:46:47;-0.10;99.90
65048;DHT22;52089;51.362;-2.384;2022-12-07T06:50:29;-0.10;99.90
65048;DHT22;52089;51.362;-2.384;2022-12-07T06:54:12;-0.10;99.90
65048;DHT22;52089;51.362;-2.384;2022-12-07T06:57:54;0.00;99.90
65048;DHT22;52089;51.362;-2.384;2022-12-07T07:01:36;0.00;99.90
65048;DHT22;52089;51.362;-2.384;2022-12-07T07:05:18;0.00;99.90
65048;DHT22;52089;51.362;-2.384;2022-12-07T07:09:03;0.00;99.90
65048;DHT22;52089;51.362;-2.384;2022-12-07T07:12:44;0.00;99.90
65048;DHT22;52089;51.362;-2.384;2022-12-07T07:16:26;0.00;99.90
65048;DHT22;52089;51.362;-2.384;2022-12-07T07:20:09;0.00;99.90
65048;DHT22;52089;51.362;-2.384;2022-12-07T07:23:51;0.00;99.90
65048;DHT22;52089;51.362;-2.384;2022-12-07T07:27:33;-0.10;99.90
65048;DHT22;52089;51.362;-2.384;2022-12-07T07:31:15;-0.20;99.90
65048;DHT22;52089;51.362;-2.384;2022-12-07T07:34:57;-0.20;99.90
65048;DHT22;52089;51.362;-2.384;2022-12-07T07:38:38;-0.20;99.90
65048;DHT22;52089;51.362;-2.384;2022-12-07T07:42:20;-0.20;99.90
65048;DHT22;52089;51.362;-2.384;2022-12-07T07:46:02;-0.20;99.90
65048;DHT22;52089;51.362;-2.384;2022-12-07T07:49:44;-0.20;99.90
65048;DHT22;52089;51.362;-2.384;2022-12-07T07:53:28;-0.30;99.90
65048;DHT22;52089;51.362;-2.384;2022-12-07T07:57:10;-0.30;99.90
65048;DHT22;52089;51.362;-2.384;2022-12-07T08:00:52;-0.30;99.90
65048;DHT22;52089;51.362;-2.384;2022-12-07T08:04:35;-0.30;99.90
65048;DHT22;52089;51.362;-2.384;2022-12-07T08:08:17;-0.30;99.90
65048;DHT22;52089;51.362;-2.384;2022-12-07T08:11:59;-0.30;99.90
65048;DHT22;52089;51.362;-2.384;2022-12-07T08:15:44;-0.30;99.90
65048;DHT22;52089;51.362;-2.384;2022-12-07T08:19:26;-0.20;99.90
65048;DHT22;52089;51.362;-2.384;2022-12-07T08:23:08;-0.20;99.90
65048;DHT22;52089;51.362;-2.384;2022-12-07T08:26:50;-0.20;99.90
65048;DHT22;52089;51.362;-2.384;2022-12-07T08:30:32;-0.10;99.90
65048;DHT22;52089;51.362;-2.384;2022-12-07T08:34:14;0.00;99.90
65048;DHT22;52089;51.362;-2.384;2022-12-07T08:37:56;0.20;99.90
65048;DHT22;52089;51.362;-2.384;2022-12-07T08:41:39;0.30;99.90
65048;DHT22;52089;51.362;-2.384;2022-12-07T08:45:22;0.50;99.90
65048;DHT22;52089;51.362;-2.384;2022-12-07T08:49:14;0.80;99.90
65048;DHT22;52089;51.362;-2.384;2022-12-07T08:52:58;1.20;99.90
65048;DHT22;52089;51.362;-2.384;2022-12-07T08:56:41;1.60;99.90
65048;DHT22;52089;51.362;-2.384;2022-12-07T09:00:23;2.00;99.90
65048;DHT22;52089;51.362;-2.384;2022-12-07T09:04:05;2.40;99.90
65048;DHT22;52089;51.362;-2.384;2022-12-07T09:07:51;2.60;99.90
65048;DHT22;52089;51.362;-2.384;2022-12-07T09:11:35;2.80;99.90
65048;DHT22;52089;51.362;-2.384;2022-12-07T09:15:17;3.00;99.90
65048;DHT22;52089;51.362;-2.384;2022-12-07T09:18:59;3.20;99.90
65048;DHT22;52089;51.362;-2.384;2022-12-07T09:22:41;3.30;99.90
65048;DHT22;52089;51.362;-2.384;2022-12-07T09:26:23;3.40;99.90
65048;DHT22;52089;51.362;-2.384;2022-12-07T09:30:06;3.40;99.90
65048;DHT22;52089;51.362;-2.384;2022-12-07T09:33:56;3.50;99.90
65048;DHT22;52089;51.362;-2.384;2022-12-07T09:37:38;3.70;99.90
65048;DHT22;52089;51.362;-2.384;2022-12-07T09:41:21;3.90;99.90
65048;DHT22;52089;51.362;-2.384;2022-12-07T09:45:16;4.00;99.90
65048;DHT22;52089;51.362;-2.384;2022-12-07T09:48:58;4.10;99.90
65048;DHT22;52089;51.362;-2.384;2022-12-07T09:52:41;4.10;99.90
65048;DHT22;52089;51.362;-2.384;2022-12-07T09:56:23;4.10;99.90
65048;DHT22;52089;51.362;-2.384;2022-12-07T10:00:15;4.10;99.90
65048;DHT22;52089;51.362;-2.384;2022-12-07T10:04:20;4.20;99.90
65048;DHT22;52089;51.362;-2.384;2022-12-07T10:08:03;4.20;99.90
65048;DHT22;52089;51.362;-2.384;2022-12-07T10:12:18;4.40;99.90
65048;DHT22;52089;51.362;-2.384;2022-12-07T10:15:59;4.40;99.90
65048;DHT22;52089;51.362;-2.384;2022-12-07T10:19:47;4.60;99.90
65048;DHT22;52089;51.362;-2.384;2022-12-07T10:23:29;4.70;99.90
65048;DHT22;52089;51.362;-2.384;2022-12-07T10:27:30;4.80;99.90
65048;DHT22;52089;51.362;-2.384;2022-12-07T10:31:21;4.90;99.90
65048;DHT22;52089;51.362;-2.384;2022-12-07T10:35:28;4.90;99.90
65048;DHT22;52089;51.362;-2.384;2022-12-07T10:39:16;4.80;99.90
65048;DHT22;52089;51.362;-2.384;2022-12-07T10:51:07;4.40;99.90
65048;DHT22;52089;51.362;-2.384;2022-12-07T10:55:29;4.40;99.90
65048;DHT22;52089;51.362;-2.384;2022-12-07T10:59:30;5.30;99.90
65048;DHT22;52089;51.362;-2.384;2022-12-07T11:07:48;8.20;99.90
65048;DHT22;52089;51.362;-2.384;2022-12-07T11:12:01;9.40;99.90
65048;DHT22;52089;51.362;-2.384;2022-12-07T11:15:54;10.40;99.90
65048;DHT22;52089;51.362;-2.384;2022-12-07T11:24:10;12.00;99.90
65048;DHT22;52089;51.362;-2.384;2022-12-07T11:28:09;12.80;99.90
65048;DHT22;52089;51.362;-2.384;2022-12-07T11:32:11;13.40;99.90
65048;DHT22;52089;51.362;-2.384;2022-12-07T11:36:02;14.10;99.90
65048;DHT22;52089;51.362;-2.384;2022-12-07T11:39:52;14.90;99.90
65048;DHT22;52089;51.362;-2.384;2022-12-07T11:43:35;15.80;99.90
65048;DHT22;52089;51.362;-2.384;2022-12-07T11:47:29;16.30;99.90
65048;DHT22;52089;51.362;-2.384;2022-12-07T11:51:13;16.40;99.90
65048;DHT22;52089;51.362;-2.384;2022-12-07T11:54:58;16.20;99.90
65048;DHT22;52089;51.362;-2.384;2022-12-07T11:58:47;15.60;99.90
65048;DHT22;52089;51.362;-2.384;2022-12-07T12:02:43;14.90;99.90
65048;DHT22;52089;51.362;-2.384;2022-12-07T12:06:28;14.10;99.90
65048;DHT22;52089;51.362;-2.384;2022-12-07T12:10:27;13.30;99.90
65048;DHT22;52089;51.362;-2.384;2022-12-07T12:22:37;11.60;99.90
65048;DHT22;52089;51.362;-2.384;2022-12-07T12:26:22;11.20;99.90
65048;DHT22;52089;51.362;-2.384;2022-12-07T12:30:07;10.80;99.90
65048;DHT22;52089;51.362;-2.384;2022-12-07T12:34:41;10.50;99.90
65048;DHT22;52089;51.362;-2.384;2022-12-07T12:42:53;9.80;99.90
65048;DHT22;52089;51.362;-2.384;2022-12-07T12:46:36;9.60;99.90
65048;DHT22;52089;51.362;-2.384;2022-12-07T12:50:27;9.60;99.90
65048;DHT22;52089;51.362;-2.384;2022-12-07T12:54:32;9.40;99.90
65048;DHT22;52089;51.362;-2.384;2022-12-07T13:10:02;9.10;99.90
65048;DHT22;52089;51.362;-2.384;2022-12-07T13:13:44;8.90;99.90
65048;DHT22;52089;51.362;-2.384;2022-12-07T13:24:57;8.40;99.90
65048;DHT22;52089;51.362;-2.384;2022-12-07T13:29:05;8.20;99.90
65048;DHT22;52089;51.362;-2.384;2022-12-07T13:33:05;8.00;99.90
65048;DHT22;52089;51.362;-2.384;2022-12-07T13:36:47;7.90;99.90
65048;DHT22;52089;51.362;-2.384;2022-12-07T13:40:29;7.80;99.90
65048;DHT22;52089;51.362;-2.384;2022-12-07T13:44:13;7.70;99.90
65048;DHT22;52089;51.362;-2.384;2022-12-07T13:47:57;7.60;99.90
65048;DHT22;52089;51.362;-2.384;2022-12-07T13:51:40;7.50;99.90
65048;DHT22;52089;51.362;-2.384;2022-12-07T13:55:22;7.50;99.90
65048;DHT22;52089;51.362;-2.384;2022-12-07T13:59:07;7.40;99.90
65048;DHT22;52089;51.362;-2.384;2022-12-07T14:02:59;7.30;99.90
65048;DHT22;52089;51.362;-2.384;2022-12-07T14:06:51;7.20;99.90
65048;DHT22;52089;51.362;-2.384;2022-12-07T14:10:35;7.10;99.90
65048;DHT22;52089;51.362;-2.384;2022-12-07T14:14:20;6.90;99.90
65048;DHT22;52089;51.362;-2.384;2022-12-07T14:18:03;6.80;99.90
65048;DHT22;52089;51.362;-2.384;2022-12-07T14:21:46;6.70;99.90
65048;DHT22;52089;51.362;-2.384;2022-12-07T14:25:28;6.60;99.90
65048;DHT22;52089;51.362;-2.384;2022-12-07T14:29:39;6.60;99.90
65048;DHT22;52089;51.362;-2.384;2022-12-07T14:33:20;6.50;99.90
65048;DHT22;52089;51.362;-2.384;2022-12-07T14:37:06;6.50;99.90
65048;DHT22;52089;51.362;-2.384;2022-12-07T14:40:48;6.50;99.90
65048;DHT22;52089;51.362;-2.384;2022-12-07T14:44:30;6.50;99.90
65048;DHT22;52089;51.362;-2.384;2022-12-07T14:48:16;6.40;99.90
65048;DHT22;52089;51.362;-2.384;2022-12-07T14:52:23;6.30;99.90
65048;DHT22;52089;51.362;-2.384;2022-12-07T14:56:26;6.20;99.90
65048;DHT22;52089;51.362;-2.384;2022-12-07T15:00:13;6.10;99.90
65048;DHT22;52089;51.362;-2.384;2022-12-07T15:03:55;6.10;99.90
65048;DHT22;52089;51.362;-2.384;2022-12-07T15:07:37;6.00;99.90
65048;DHT22;52089;51.362;-2.384;2022-12-07T15:11:19;5.90;99.90
65048;DHT22;52089;51.362;-2.384;2022-12-07T15:15:01;5.80;99.90
65048;DHT22;52089;51.362;-2.384;2022-12-07T15:18:43;5.80;99.90
65048;DHT22;52089;51.362;-2.384;2022-12-07T15:22:45;5.70;99.90
65048;DHT22;52089;51.362;-2.384;2022-12-07T15:26:28;5.50;99.90
65048;DHT22;52089;51.362;-2.384;2022-12-07T15:30:10;5.40;99.90
65048;DHT22;52089;51.362;-2.384;2022-12-07T15:33:51;5.20;99.90
65048;DHT22;52089;51.362;-2.384;2022-12-07T15:37:33;5.00;99.90
65048;DHT22;52089;51.362;-2.384;2022-12-07T15:41:16;4.80;99.90
65048;DHT22;52089;51.362;-2.384;2022-12-07T15:44:58;4.60;99.90
65048;DHT22;52089;51.362;-2.384;2022-12-07T15:48:47;4.40;99.90
65048;DHT22;52089;51.362;-2.384;2022-12-07T15:52:28;4.30;99.90
65048;DHT22;52089;51.362;-2.384;2022-12-07T15:56:10;4.10;99.90
65048;DHT22;52089;51.362;-2.384;2022-12-07T15:59:53;3.90;99.90
65048;DHT22;52089;51.362;-2.384;2022-12-07T16:03:35;3.80;99.90
65048;DHT22;52089;51.362;-2.384;2022-12-07T16:07:17;3.60;99.90
65048;DHT22;52089;51.362;-2.384;2022-12-07T16:10:59;3.40;99.90
65048;DHT22;52089;51.362;-2.384;2022-12-07T16:14:42;3.30;99.90
65048;DHT22;52089;51.362;-2.384;2022-12-07T16:18:24;3.20;99.90
65048;DHT22;52089;51.362;-2.384;2022-12-07T16:22:05;3.10;99.90
65048;DHT22;52089;51.362;-2.384;2022-12-07T16:25:47;3.00;99.90
65048;DHT22;52089;51.362;-2.384;2022-12-07T16:29:29;2.90;99.90
65048;DHT22;52089;51.362;-2.384;2022-12-07T16:33:11;2.70;99.90
65048;DHT22;52089;51.362;-2.384;2022-12-07T16:36:53;2.60;99.90
65048;DHT22;52089;51.362;-2.384;2022-12-07T16:40:47;2.40;99.90
65048;DHT22;52089;51.362;-2.384;2022-12-07T16:44:28;2.30;99.90
65048;DHT22;52089;51.362;-2.384;2022-12-07T16:48:12;2.10;99.90
65048;DHT22;52089;51.362;-2.384;2022-12-07T16:51:53;1.90;99.90
65048;DHT22;52089;51.362;-2.384;2022-12-07T16:55:55;1.80;99.90
65048;DHT22;52089;51.362;-2.384;2022-12-07T16:59:37;1.60;99.90
65048;DHT22;52089;51.362;-2.384;2022-12-07T17:03:19;1.50;99.90
65048;DHT22;52089;51.362;-2.384;2022-12-07T17:07:01;1.40;99.90
65048;DHT22;52089;51.362;-2.384;2022-12-07T17:10:44;1.30;99.90
65048;DHT22;52089;51.362;-2.384;2022-12-07T17:14:26;1.20;99.90
65048;DHT22;52089;51.362;-2.384;2022-12-07T17:18:32;1.10;99.90
65048;DHT22;52089;51.362;-2.384;2022-12-07T17:22:14;1.00;99.90
65048;DHT22;52089;51.362;-2.384;2022-12-07T17:25:56;0.90;99.90
65048;DHT22;52089;51.362;-2.384;2022-12-07T17:29:38;0.80;99.90
65048;DHT22;52089;51.362;-2.384;2022-12-07T17:33:20;0.80;99.90
65048;DHT22;52089;51.362;-2.384;2022-12-07T17:37:02;0.70;99.90
65048;DHT22;52089;51.362;-2.384;2022-12-07T17:40:45;0.70;99.90
65048;DHT22;52089;51.362;-2.384;2022-12-07T17:44:27;0.70;99.90
65048;DHT22;52089;51.362;-2.384;2022-12-07T17:48:09;0.60;99.90
65048;DHT22;52089;51.362;-2.384;2022-12-07T17:51:51;0.50;99.90
65048;DHT22;52089;51.362;-2.384;2022-12-07T17:55:55;0.50;99.90
65048;DHT22;52089;51.362;-2.384;2022-12-07T17:59:57;0.50;99.90
65048;DHT22;52089;51.362;-2.384;2022-12-07T18:03:39;0.40;99.90
65048;DHT22;52089;51.362;-2.384;2022-12-07T18:07:21;0.40;99.90
65048;DHT22;52089;51.362;-2.384;2022-12-07T18:11:03;0.40;99.90
65048;DHT22;52089;51.362;-2.384;2022-12-07T18:14:45;0.30;99.90
65048;DHT22;52089;51.362;-2.384;2022-12-07T18:18:27;0.30;99.90
65048;DHT22;52089;51.362;-2.384;2022-12-07T18:22:09;0.30;99.90
65048;DHT22;52089;51.362;-2.384;2022-12-07T18:25:51;0.20;99.90
65048;DHT22;52089;51.362;-2.384;2022-12-07T18:29:34;0.20;99.90
65048;DHT22;52089;51.362;-2.384;2022-12-07T18:33:17;0.10;99.90
65048;DHT22;52089;51.362;-2.384;2022-12-07T18:36:59;0.10;99.90
65048;DHT22;52089;51.362;-2.384;2022-12-07T18:40:41;0.00;99.90
65048;DHT22;52089;51.362;-2.384;2022-12-07T18:44:24;0.00;99.90
65048;DHT22;52089;51.362;-2.384;2022-12-07T18:48:06;0.00;99.90
65048;DHT22;52089;51.362;-2.384;2022-12-07T18:51:49;0.00;99.90
65048;DHT22;52089;51.362;-2.384;2022-12-07T18:55:32;-0.10;99.90
65048;DHT22;52089;51.362;-2.384;2022-12-07T18:59:14;0.00;99.90
65048;DHT22;52089;51.362;-2.384;2022-12-07T19:03:14;-0.10;99.90
65048;DHT22;52089;51.362;-2.384;2022-12-07T19:06:56;-0.10;99.90
65048;DHT22;52089;51.362;-2.384;2022-12-07T19:10:38;-0.10;99.90
65048;DHT22;52089;51.362;-2.384;2022-12-07T19:14:21;0.00;99.90
65048;DHT22;52089;51.362;-2.384;2022-12-07T19:18:03;0.00;99.90
65048;DHT22;52089;51.362;-2.384;2022-12-07T19:21:45;0.00;99.90
65048;DHT22;52089;51.362;-2.384;2022-12-07T19:25:27;0.00;99.90
65048;DHT22;52089;51.362;-2.384;2022-12-07T19:29:09;0.00;99.90
65048;DHT22;52089;51.362;-2.384;2022-12-07T19:32:50;-0.10;99.90
65048;DHT22;52089;51.362;-2.384;2022-12-07T19:36:32;-0.10;99.90
65048;DHT22;52089;51.362;-2.384;2022-12-07T19:40:14;-0.20;99.90
65048;DHT22;52089;51.362;-2.384;2022-12-07T19:43:56;-0.20;99.90
65048;DHT22;52089;51.362;-2.384;2022-12-07T19:47:38;-0.20;99.90
65048;DHT22;52089;51.362;-2.384;2022-12-07T19:51:20;-0.20;99.90
65048;DHT22;52089;51.362;-2.384;2022-12-07T19:55:02;-0.30;99.90
65048;DHT22;52089;51.362;-2.384;2022-12-07T19:58:45;-0.20;99.90
65048;DHT22;52089;51.362;-2.384;2022-12-07T20:02:28;-0.10;99.90
65048;DHT22;52089;51.362;-2.384;2022-12-07T20:06:12;-0.20;99.90
65048;DHT22;52089;51.362;-2.384;2022-12-07T20:09:54;-0.20;99.90
65048;DHT22;52089;51.362;-2.384;2022-12-07T20:13:36;-0.20;99.90
65048;DHT22;52089;51.362;-2.384;2022-12-07T20:17:18;-0.20;99.90
65048;DHT22;52089;51.362;-2.384;2022-12-07T20:21:00;-0.30;99.90
65048;DHT22;52089;51.362;-2.384;2022-12-07T20:24:42;-0.30;99.90
65048;DHT22;52089;51.362;-2.384;2022-12-07T20:28:24;-0.30;99.90
65048;DHT22;52089;51.362;-2.384;2022-12-07T20:32:05;-0.30;99.90
65048;DHT22;52089;51.362;-2.384;2022-12-07T20:35:47;-0.40;99.90
65048;DHT22;52089;51.362;-2.384;2022-12-07T20:39:29;-0.40;99.90
65048;DHT22;52089;51.362;-2.384;2022-12-07T20:43:11;-0.50;99.90
65048;DHT22;52089;51.362;-2.384;2022-12-07T20:46:53;-0.50;99.90
65048;DHT22;52089;51.362;-2.384;2022-12-07T20:50:35;-0.50;99.90
65048;DHT22;52089;51.362;-2.384;2022-12-07T20:54:22;-0.50;99.90
65048;DHT22;52089;51.362;-2.384;2022-12-07T20:58:04;-0.50;99.90
65048;DHT22;52089;51.362;-2.384;2022-12-07T21:01:46;-0.50;99.90
65048;DHT22;52089;51.362;-2.384;2022-12-07T21:05:29;-0.50;99.90
65048;DHT22;52089;51.362;-2.384;2022-12-07T21:09:11;-0.50;99.90
65048;DHT22;52089;51.362;-2.384;2022-12-07T21:12:53;-0.50;99.90
65048;DHT22;52089;51.362;-2.384;2022-12-07T21:16:36;-0.40;99.90
65048;DHT22;52089;51.362;-2.384;2022-12-07T21:20:18;-0.50;99.90
65048;DHT22;52089;51.362;-2.384;2022-12-07T21:24:01;-0.50;99.90
65048;DHT22;52089;51.362;-2.384;2022-12-07T21:27:44;-0.60;99.90
65048;DHT22;52089;51.362;-2.384;2022-12-07T21:31:25;-0.60;99.90
65048;DHT22;52089;51.362;-2.384;2022-12-07T21:35:08;-0.70;99.90
65048;DHT22;52089;51.362;-2.384;2022-12-07T21:38:50;-0.70;99.90
65048;DHT22;52089;51.362;-2.384;2022-12-07T21:42:31;-0.70;99.90
65048;DHT22;52089;51.362;-2.384;2022-12-07T21:46:14;-0.70;99.90
65048;DHT22;52089;51.362;-2.384;2022-12-07T21:49:56;-0.70;99.90
65048;DHT22;52089;51.362;-2.384;2022-12-07T21:53:39;-0.60;99.90
65048;DHT22;52089;51.362;-2.384;2022-12-07T21:57:22;-0.60;99.90
65048;DHT22;52089;51.362;-2.384;2022-12-07T22:01:04;-0.60;99.90
65048;DHT22;52089;51.362;-2.384;2022-12-07T22:04:45;-0.60;99.90
65048;DHT22;52089;51.362;-2.384;2022-12-07T22:08:28;-0.60;99.90
65048;DHT22;52089;51.362;-2.384;2022-12-07T22:12:10;-0.70;99.90
65048;DHT22;52089;51.362;-2.384;2022-12-07T22:15:52;-0.70;99.90
65048;DHT22;52089;51.362;-2.384;2022-12-07T22:19:34;-0.70;99.90
65048;DHT22;52089;51.362;-2.384;2022-12-07T22:23:16;-0.70;99.90
65048;DHT22;52089;51.362;-2.384;2022-12-07T22:26:57;-0.80;99.90
65048;DHT22;52089;51.362;-2.384;2022-12-07T22:30:39;-0.80;99.90
65048;DHT22;52089;51.362;-2.384;2022-12-07T22:34:21;-0.80;99.90
65048;DHT22;52089;51.362;-2.384;2022-12-07T22:38:03;-0.80;99.90
65048;DHT22;52089;51.362;-2.384;2022-12-07T22:41:44;-0.80;99.90
65048;DHT22;52089;51.362;-2.384;2022-12-07T22:45:26;-0.70;99.90
65048;DHT22;52089;51.362;-2.384;2022-12-07T22:49:08;-0.80;99.90
65048;DHT22;52089;51.362;-2.384;2022-12-07T22:52:52;-0.80;99.90
65048;DHT22;52089;51.362;-2.384;2022-12-07T22:56:36;-0.80;99.90
65048;DHT22;52089;51.362;-2.384;2022-12-07T23:00:18;-0.80;99.90
65048;DHT22;52089;51.362;-2.384;2022-12-07T23:04:00;-0.80;99.90
65048;DHT22;52089;51.362;-2.384;2022-12-07T23:07:42;-0.80;99.90
65048;DHT22;52089;51.362;-2.384;2022-12-07T23:11:27;-0.80;99.90
65048;DHT22;52089;51.362;-2.384;2022-12-07T23:15:27;-0.90;99.90
65048;DHT22;52089;51.362;-2.384;2022-12-07T23:19:10;-0.90;99.90
65048;DHT22;52089;51.362;-2.384;2022-12-07T23:22:52;-0.90;99.90
65048;DHT22;52089;51.362;-2.384;2022-12-07T23:26:34;-0.90;99.90
65048;DHT22;52089;51.362;-2.384;2022-12-07T23:30:16;-0.90;99.90
65048;DHT22;52089;51.362;-2.384;2022-12-07T23:33:58;-0.90;99.90
65048;DHT22;52089;51.362;-2.384;2022-12-07T23:37:39;-0.90;99.90
65048;DHT22;52089;51.362;-2.384;2022-12-07T23:41:24;-0.90;99.90
65048;DHT22;52089;51.362;-2.384;2022-12-07T23:45:07;-0.90;99.90
65048;DHT22;52089;51.362;-2.384;2022-12-07T23:48:50;-0.90;99.90
65048;DHT22;52089;51.362;-2.384;2022-12-07T23:52:32;-1.00;99.90
65048;DHT22;52089;51.362;-2.384;2022-12-07T23:56:22;-1.10;99.90
